createdAt,value
2023-03-26T00:01:26.629Z,9.16
2023-03-26T00:04:38.662Z,9.19
2023-03-26T00:07:52.016Z,9.20
2023-03-26T00:11:03.978Z,9.11
2023-03-26T00:14:17.860Z,9.12
2023-03-26T00:17:30.670Z,9.14
2023-03-26T00:20:43.093Z,9.19
2023-03-26T00:23:55.438Z,9.15
2023-03-26T00:27:09.252Z,9.20
2023-03-26T00:30:22.735Z,9.23
2023-03-26T00:33:38.273Z,9.22
2023-03-26T00:36:53.270Z,9.21
2023-03-26T00:40:08.138Z,9.17
2023-03-26T00:43:23.004Z,9.19
2023-03-26T00:46:37.520Z,9.17
2023-03-26T00:49:51.068Z,9.12
2023-03-26T00:53:03.486Z,9.08
2023-03-26T00:56:17.455Z,9.08
2023-03-26T00:59:30.603Z,9.07
2023-03-26T01:02:43.852Z,9.05
2023-03-26T01:06:02.425Z,9.02
2023-03-26T01:09:21.710Z,9.05
2023-03-26T01:12:37.192Z,9.00
2023-03-26T01:15:53.581Z,9.05
2023-03-26T01:19:08.826Z,8.98
2023-03-26T01:22:26.508Z,9.13
2023-03-26T01:25:43.319Z,9.13
2023-03-26T01:28:58.854Z,9.16
2023-03-26T01:32:21.608Z,9.15
2023-03-26T01:35:44.811Z,9.17
2023-03-26T01:39:03.712Z,9.19
2023-03-26T01:42:19.782Z,9.21
2023-03-26T01:45:36.813Z,9.17
2023-03-26T01:48:51.702Z,8.98
2023-03-26T01:52:04.866Z,8.73
2023-03-26T01:55:18.365Z,8.54
2023-03-26T01:58:39.288Z,8.39
2023-03-26T02:01:57.567Z,8.37
2023-03-26T02:05:16.358Z,8.29
2023-03-26T02:08:35.844Z,8.16
2023-03-26T02:11:50.185Z,8.15
2023-03-26T02:15:05.162Z,8.01
2023-03-26T02:18:17.384Z,8.09
2023-03-26T02:21:34.361Z,8.04
2023-03-26T02:24:47.118Z,8.00
2023-03-26T02:28:00.465Z,8.04
2023-03-26T02:31:14.040Z,8.06
2023-03-26T02:34:26.422Z,8.05
2023-03-26T02:37:39.725Z,8.00
2023-03-26T02:40:56.876Z,7.91
2023-03-26T02:44:11.919Z,7.92
2023-03-26T02:47:43.716Z,7.88
2023-03-26T02:51:04.184Z,7.93
2023-03-26T02:54:20.665Z,7.93
2023-03-26T02:57:33.237Z,8.03
2023-03-26T03:00:59.687Z,8.07
2023-03-26T03:04:18.182Z,8.13
2023-03-26T03:07:31.127Z,8.13
2023-03-26T03:10:45.096Z,8.15
2023-03-26T03:14:02.192Z,8.21
2023-03-26T03:17:15.774Z,8.22
2023-03-26T03:20:30.091Z,8.20
2023-03-26T03:23:42.750Z,8.18
2023-03-26T03:26:58.303Z,8.21
2023-03-26T03:30:22.305Z,8.27
2023-03-26T03:33:43.388Z,8.28
2023-03-26T03:36:56.038Z,8.30
2023-03-26T03:40:16.377Z,8.31
2023-03-26T03:43:29.278Z,8.32
2023-03-26T03:46:44.682Z,8.33
2023-03-26T03:49:57.113Z,8.39
2023-03-26T03:53:09.949Z,8.42
2023-03-26T03:56:24.467Z,8.49
2023-03-26T03:59:47.919Z,8.52
2023-03-26T04:02:59.694Z,8.56
2023-03-26T04:06:16.797Z,8.61
2023-03-26T04:09:29.581Z,8.64
2023-03-26T04:12:43.534Z,8.64
2023-03-26T04:15:57.890Z,8.61
2023-03-26T04:19:10.839Z,8.57
2023-03-26T04:22:23.869Z,8.58
2023-03-26T04:25:39.764Z,8.61
2023-03-26T04:28:59.967Z,8.60
2023-03-26T04:32:18.869Z,8.61
2023-03-26T04:35:33.601Z,8.64
2023-03-26T04:38:52.337Z,8.66
2023-03-26T04:42:06.392Z,8.64
2023-03-26T04:45:23.909Z,8.61
2023-03-26T04:48:38.925Z,8.58
2023-03-26T04:51:53.828Z,8.58
2023-03-26T04:55:25.829Z,8.61
2023-03-26T04:58:40.099Z,8.62
2023-03-26T05:01:53.119Z,8.68
2023-03-26T05:05:07.186Z,8.73
2023-03-26T05:08:19.974Z,8.68
2023-03-26T05:11:33.216Z,8.62
2023-03-26T05:14:46.037Z,8.65
2023-03-26T05:18:00.093Z,8.59
2023-03-26T05:21:17.535Z,8.65
2023-03-26T05:24:30.232Z,8.64
2023-03-26T05:27:43.056Z,8.67
2023-03-26T05:30:55.926Z,8.69
2023-03-26T05:34:09.626Z,8.75
2023-03-26T05:37:23.894Z,8.74
2023-03-26T05:40:38.150Z,8.73
2023-03-26T05:43:52.162Z,8.72
2023-03-26T05:47:06.343Z,8.81
2023-03-26T05:50:19.990Z,8.90
2023-03-26T05:53:33.954Z,9.06
2023-03-26T05:57:01.860Z,9.14
2023-03-26T06:00:34.091Z,9.32
2023-03-26T06:03:48.181Z,9.37
2023-03-26T06:07:02.491Z,9.89
2023-03-26T06:10:18.558Z,9.97
2023-03-26T06:13:31.807Z,9.88
2023-03-26T06:16:44.770Z,9.68
2023-03-26T06:19:59.125Z,9.83
2023-03-26T06:23:13.247Z,9.80
2023-03-26T06:26:33.859Z,9.80
2023-03-26T06:29:48.395Z,9.74
2023-03-26T06:33:19.380Z,9.74
2023-03-26T06:36:33.569Z,9.69
2023-03-26T06:39:46.289Z,9.77
2023-03-26T06:43:08.549Z,9.95
2023-03-26T06:46:36.571Z,10.10
2023-03-26T06:50:03.345Z,10.00
2023-03-26T06:53:26.655Z,10.01
2023-03-26T06:56:41.356Z,10.10
2023-03-26T07:00:05.888Z,10.14
2023-03-26T07:03:33.211Z,10.21
2023-03-26T07:07:00.313Z,10.22
2023-03-26T07:10:32.213Z,10.25
2023-03-26T07:13:49.541Z,10.23
2023-03-26T07:17:20.495Z,10.35
2023-03-26T07:20:42.658Z,10.37
2023-03-26T07:23:57.808Z,10.41
2023-03-26T07:27:49.012Z,10.56
2023-03-26T07:31:15.200Z,10.56
2023-03-26T07:34:56.789Z,10.67
2023-03-26T07:38:43.768Z,11.61
2023-03-26T07:42:23.621Z,12.79
2023-03-26T07:45:50.884Z,13.20
2023-03-26T07:49:18.251Z,13.71
2023-03-26T07:52:34.560Z,14.39
2023-03-26T07:56:02.060Z,14.82
2023-03-26T07:59:35.799Z,15.22
2023-03-26T08:03:39.508Z,15.59
2023-03-26T08:07:17.933Z,14.32
2023-03-26T08:10:57.278Z,14.19
2023-03-26T08:14:24.834Z,13.86
2023-03-26T08:17:43.824Z,13.88
2023-03-26T08:21:00.548Z,14.33
2023-03-26T08:24:22.509Z,14.65
2023-03-26T08:27:42.093Z,15.21
2023-03-26T08:30:55.856Z,15.16
2023-03-26T08:34:08.524Z,14.10
2023-03-26T08:37:21.701Z,13.02
2023-03-26T08:41:00.894Z,12.69
2023-03-26T08:44:51.756Z,12.47
2023-03-26T08:48:52.204Z,12.51
2023-03-26T08:52:43.571Z,12.46
2023-03-26T08:56:02.261Z,12.45
2023-03-26T08:59:45.885Z,12.46
2023-03-26T09:03:39.176Z,12.47
2023-03-26T09:07:38.138Z,13.33
2023-03-26T09:11:15.412Z,14.87
2023-03-26T09:15:18.717Z,15.74
2023-03-26T09:19:08.219Z,16.53
2023-03-26T09:22:55.343Z,17.66
2023-03-26T09:26:29.973Z,17.60
2023-03-26T09:30:22.133Z,15.68
2023-03-26T09:34:00.532Z,16.41
2023-03-26T09:37:25.850Z,16.15
2023-03-26T09:40:48.161Z,15.89
2023-03-26T09:44:47.621Z,15.11
2023-03-26T09:48:36.200Z,15.51
2023-03-26T09:52:14.291Z,16.02
2023-03-26T09:55:54.062Z,15.12
2023-03-26T09:59:48.749Z,14.63
2023-03-26T10:03:32.838Z,13.81
2023-03-26T10:06:54.621Z,13.65
2023-03-26T10:10:12.275Z,13.46
2023-03-26T10:13:35.231Z,13.61
2023-03-26T10:16:58.266Z,13.59
2023-03-26T10:20:35.680Z,14.59
2023-03-26T10:24:01.271Z,15.20
2023-03-26T10:27:35.440Z,14.62
2023-03-26T10:31:19.936Z,13.75
2023-03-26T10:34:52.080Z,13.43
2023-03-26T10:38:14.061Z,13.58
2023-03-26T10:41:33.672Z,13.33
2023-03-26T10:45:02.989Z,13.27
2023-03-26T10:48:53.460Z,13.07
2023-03-26T10:52:09.594Z,13.17
2023-03-26T10:55:29.511Z,13.10
2023-03-26T10:58:49.672Z,13.14
2023-03-26T11:02:06.074Z,13.09
2023-03-26T11:05:41.642Z,13.12
2023-03-26T11:08:59.167Z,12.99
2023-03-26T11:12:26.145Z,12.80
2023-03-26T11:15:38.527Z,12.76
2023-03-26T11:18:55.947Z,12.91
2023-03-26T11:22:16.657Z,13.00
2023-03-26T11:25:53.819Z,13.56
2023-03-26T11:29:44.865Z,14.85
2023-03-26T11:33:01.600Z,15.01
2023-03-26T11:36:19.889Z,14.44
2023-03-26T11:39:36.836Z,14.28
2023-03-26T11:42:48.451Z,13.92
2023-03-26T11:46:00.819Z,13.81
2023-03-26T11:49:16.676Z,13.86
2023-03-26T11:52:29.987Z,13.81
2023-03-26T11:55:42.855Z,13.39
2023-03-26T11:59:01.385Z,13.43
2023-03-26T12:02:34.507Z,13.48
2023-03-26T12:05:54.794Z,13.56
2023-03-26T12:09:07.263Z,13.50
2023-03-26T12:12:19.738Z,13.65
2023-03-26T12:15:33.636Z,14.03
2023-03-26T12:18:46.741Z,14.11
2023-03-26T12:21:59.971Z,14.01
2023-03-26T12:25:27.656Z,13.78
2023-03-26T12:28:41.468Z,13.65
2023-03-26T12:32:11.587Z,13.40
2023-03-26T12:35:30.512Z,13.42
2023-03-26T12:38:46.180Z,13.46
2023-03-26T12:44:51.172Z,13.49
2023-03-26T12:45:22.352Z,13.65
2023-03-26T12:48:34.786Z,13.71
2023-03-26T12:51:52.683Z,13.52
2023-03-26T12:55:13.498Z,13.37
2023-03-26T12:58:39.848Z,13.40
2023-03-26T13:02:03.250Z,13.39
2023-03-26T13:05:39.036Z,13.30
2023-03-26T13:09:15.817Z,13.21
2023-03-26T13:12:41.698Z,13.94
2023-03-26T13:15:58.277Z,14.19
2023-03-26T13:19:17.682Z,14.20
2023-03-26T13:22:36.326Z,14.04
2023-03-26T13:25:55.862Z,13.83
2023-03-26T13:29:13.640Z,13.41
2023-03-26T13:32:32.757Z,13.23
2023-03-26T13:35:51.085Z,13.21
2023-03-26T13:39:14.356Z,13.30
2023-03-26T13:42:49.711Z,13.80
2023-03-26T13:46:11.997Z,13.79
2023-03-26T13:49:33.171Z,13.79
2023-03-26T13:52:52.381Z,13.68
2023-03-26T13:56:06.062Z,13.63
2023-03-26T13:59:23.930Z,14.06
2023-03-26T14:02:42.208Z,14.46
2023-03-26T14:05:58.751Z,14.56
2023-03-26T14:09:18.720Z,14.67
2023-03-26T14:12:46.671Z,14.91
2023-03-26T14:16:03.785Z,14.61
2023-03-26T14:19:32.235Z,14.37
2023-03-26T14:22:54.260Z,14.07
2023-03-26T14:26:37.601Z,14.07
2023-03-26T14:30:01.592Z,13.93
2023-03-26T14:33:28.337Z,13.91
2023-03-26T14:37:10.721Z,13.84
2023-03-26T14:40:57.502Z,13.76
2023-03-26T14:44:47.606Z,13.67
2023-03-26T14:48:09.724Z,13.74
2023-03-26T14:51:32.633Z,13.62
2023-03-26T14:54:49.296Z,13.59
2023-03-26T14:58:42.139Z,13.49
2023-03-26T15:02:22.629Z,13.43
2023-03-26T15:06:25.595Z,13.37
2023-03-26T15:10:43.341Z,13.36
2023-03-26T15:14:12.342Z,13.35
2023-03-26T15:18:24.446Z,13.38
2023-03-26T15:22:23.444Z,13.43
2023-03-26T15:26:42.109Z,13.44
2023-03-26T15:30:35.437Z,13.47
2023-03-26T15:34:28.444Z,13.50
2023-03-26T15:38:25.301Z,13.53
2023-03-26T15:41:44.009Z,13.52
2023-03-26T15:45:06.321Z,13.47
2023-03-26T15:49:06.021Z,13.43
2023-03-26T15:52:30.680Z,13.42
2023-03-26T15:55:48.947Z,13.39
2023-03-26T15:59:26.117Z,13.34
2023-03-26T16:17:14.521Z,13.25
2023-03-26T16:21:31.867Z,13.21
2023-03-26T16:25:27.143Z,13.13
2023-03-26T16:29:29.277Z,13.05
2023-03-26T16:33:21.948Z,13.00
2023-03-26T16:37:13.937Z,12.96
2023-03-26T16:41:16.137Z,12.89
2023-03-26T16:45:10.566Z,12.82
2023-03-26T16:49:09.961Z,12.71
2023-03-26T16:53:03.257Z,12.65
2023-03-26T16:57:01.750Z,12.56
2023-03-26T17:00:59.267Z,12.49
2023-03-26T17:04:41.854Z,12.39
2023-03-26T17:08:17.249Z,12.33
2023-03-26T17:11:40.283Z,12.27
2023-03-26T17:31:35.654Z,11.92
2023-03-26T17:35:07.665Z,11.86
2023-03-26T17:39:08.867Z,11.80
2023-03-26T17:42:33.098Z,11.71
2023-03-26T17:52:36.556Z,11.56
2023-03-26T17:56:15.429Z,11.52
2023-03-26T17:59:41.870Z,11.48
2023-03-26T18:03:05.976Z,11.44
2023-03-26T18:06:23.422Z,11.41
2023-03-26T18:09:50.312Z,11.37
2023-03-26T18:13:44.807Z,11.34
2023-03-26T18:17:00.510Z,11.32
2023-03-26T18:20:25.900Z,11.31
2023-03-26T18:23:45.321Z,11.32
2023-03-26T18:27:03.148Z,11.33
2023-03-26T18:30:26.449Z,11.30
2023-03-26T18:33:48.043Z,11.29
2023-03-26T18:37:19.893Z,11.26
2023-03-26T18:40:37.703Z,11.24
2023-03-26T18:43:50.615Z,11.20
2023-03-26T18:47:03.589Z,11.17
2023-03-26T18:50:26.429Z,11.15
2023-03-26T18:53:42.286Z,11.15
2023-03-26T18:56:58.919Z,11.17
2023-03-26T19:00:26.301Z,11.18
2023-03-26T19:03:43.959Z,11.20
2023-03-26T19:06:57.721Z,11.21
2023-03-26T19:10:12.007Z,11.24
2023-03-26T19:13:27.300Z,11.26
2023-03-26T19:16:43.398Z,11.28
2023-03-26T19:19:57.684Z,11.31
2023-03-26T19:23:10.691Z,11.30
2023-03-26T19:26:23.626Z,11.29
2023-03-26T19:29:38.524Z,11.30
2023-03-26T19:33:12.175Z,11.30
2023-03-26T19:36:24.501Z,11.31
2023-03-26T19:39:47.321Z,11.33
2023-03-26T19:43:00.543Z,11.32
2023-03-26T19:46:17.364Z,11.29
2023-03-26T19:49:42.126Z,11.26
2023-03-26T19:53:09.031Z,11.22
2023-03-26T19:56:22.494Z,11.19
2023-03-26T19:59:35.520Z,11.15
2023-03-26T20:02:49.497Z,11.11
2023-03-26T20:06:02.885Z,11.09
2023-03-26T20:09:16.958Z,10.99
2023-03-26T20:12:29.848Z,10.84
2023-03-26T20:15:43.466Z,10.74
2023-03-26T20:18:57.490Z,10.69
2023-03-26T20:22:10.655Z,10.63
2023-03-26T20:25:30.247Z,10.48
2023-03-26T20:28:48.172Z,10.28
2023-03-26T20:31:58.166Z,10.30
2023-03-26T20:35:20.265Z,10.20
2023-03-26T20:38:39.458Z,10.09
2023-03-26T20:41:52.752Z,10.02
2023-03-26T20:45:05.211Z,10.00
2023-03-26T20:48:17.821Z,9.98
2023-03-26T20:51:30.193Z,9.95
2023-03-26T20:54:42.449Z,9.91
2023-03-26T20:57:55.401Z,9.88
2023-03-26T21:01:09.551Z,9.82
2023-03-26T21:04:23.573Z,9.77
2023-03-26T21:07:36.005Z,9.75
2023-03-26T21:10:51.251Z,9.69
2023-03-26T21:14:11.058Z,9.58
2023-03-26T21:17:28.432Z,9.59
2023-03-26T21:20:43.369Z,9.55
2023-03-26T21:24:00.417Z,9.54
2023-03-26T21:27:15.289Z,9.31
2023-03-26T21:30:29.814Z,9.17
2023-03-26T21:33:42.867Z,9.09
2023-03-26T21:36:57.086Z,9.01
2023-03-26T21:40:17.130Z,9.15
2023-03-26T21:43:31.523Z,9.08
2023-03-26T21:46:47.934Z,9.01
2023-03-26T21:50:02.115Z,9.10
2023-03-26T21:53:18.192Z,9.11
2023-03-26T21:56:41.575Z,9.10
2023-03-26T22:00:00.712Z,9.10
2023-03-26T22:03:22.309Z,9.15
2023-03-26T22:06:43.054Z,9.12
2023-03-26T22:09:57.116Z,9.10
2023-03-26T22:13:09.273Z,9.07
2023-03-26T22:16:23.580Z,9.01
2023-03-26T22:19:36.128Z,8.94
2023-03-26T22:22:50.131Z,8.88
2023-03-26T22:26:02.530Z,8.86
2023-03-26T22:29:15.312Z,8.74
2023-03-26T22:32:32.746Z,8.75
2023-03-26T22:35:43.197Z,8.59
2023-03-26T22:38:58.289Z,8.62
2023-03-26T22:42:10.682Z,8.63
2023-03-26T22:45:23.722Z,8.68
2023-03-26T22:48:37.611Z,8.63
2023-03-26T22:51:50.310Z,8.56
2023-03-26T22:55:03.245Z,8.52
2023-03-26T22:58:15.473Z,8.36
2023-03-26T23:01:30.432Z,8.37
2023-03-26T23:04:42.871Z,8.36
2023-03-26T23:07:56.273Z,8.27
2023-03-26T23:11:14.225Z,8.34
2023-03-26T23:14:26.634Z,8.34
2023-03-26T23:17:40.956Z,8.29
2023-03-26T23:20:59.740Z,8.24
2023-03-26T23:24:13.287Z,8.28
2023-03-26T23:27:25.612Z,8.27
2023-03-26T23:30:37.858Z,8.25
2023-03-26T23:33:50.593Z,8.23
2023-03-26T23:37:03.209Z,8.24
2023-03-26T23:40:19.069Z,8.20
2023-03-26T23:43:32.969Z,8.15
2023-03-26T23:46:45.834Z,8.24
2023-03-26T23:49:58.381Z,8.20
2023-03-26T23:53:11.135Z,8.17
2023-03-26T23:56:24.068Z,8.08
2023-03-26T23:59:36.719Z,8.06
